sensor_id;sensor_type;location;lat;lon;timestamp;P1;durP1;ratioP1;P2;durP2;ratioP2
23782;SDS011;12071;50.850;4.446;2023-02-12T00:00:42;19.83;;;14.60;;
23782;SDS011;12071;50.850;4.446;2023-02-12T00:03:09;19.27;;;14.35;;
23782;SDS011;12071;50.850;4.446;2023-02-12T00:05:38;16.95;;;12.57;;
23782;SDS011;12071;50.850;4.446;2023-02-12T00:08:05;13.30;;;11.53;;
23782;SDS011;12071;50.850;4.446;2023-02-12T00:10:32;13.15;;;10.48;;
23782;SDS011;12071;50.850;4.446;2023-02-12T00:12:59;15.40;;;13.40;;
23782;SDS011;12071;50.850;4.446;2023-02-12T00:15:24;19.73;;;15.00;;
23782;SDS011;12071;50.850;4.446;2023-02-12T00:17:50;18.92;;;14.90;;
23782;SDS011;12071;50.850;4.446;2023-02-12T00:20:16;17.33;;;14.32;;
23782;SDS011;12071;50.850;4.446;2023-02-12T00:22:41;18.23;;;15.18;;
23782;SDS011;12071;50.850;4.446;2023-02-12T00:25:07;19.52;;;14.77;;
23782;SDS011;12071;50.850;4.446;2023-02-12T00:27:33;18.35;;;14.95;;
23782;SDS011;12071;50.850;4.446;2023-02-12T00:29:59;17.45;;;14.68;;
23782;SDS011;12071;50.850;4.446;2023-02-12T00:32:25;19.70;;;15.05;;
23782;SDS011;12071;50.850;4.446;2023-02-12T00:34:51;16.25;;;14.50;;
23782;SDS011;12071;50.850;4.446;2023-02-12T00:37:17;18.33;;;15.27;;
23782;SDS011;12071;50.850;4.446;2023-02-12T00:39:42;18.75;;;15.35;;
23782;SDS011;12071;50.850;4.446;2023-02-12T00:42:08;17.98;;;14.50;;
23782;SDS011;12071;50.850;4.446;2023-02-12T00:44:34;20.38;;;14.18;;
23782;SDS011;12071;50.850;4.446;2023-02-12T00:46:59;17.08;;;14.68;;
23782;SDS011;12071;50.850;4.446;2023-02-12T00:49:28;18.67;;;16.45;;
23782;SDS011;12071;50.850;4.446;2023-02-12T00:51:58;18.48;;;15.63;;
23782;SDS011;12071;50.850;4.446;2023-02-12T00:54:29;18.50;;;15.63;;
23782;SDS011;12071;50.850;4.446;2023-02-12T00:56:55;19.38;;;15.43;;
23782;SDS011;12071;50.850;4.446;2023-02-12T00:59:22;18.92;;;14.27;;
23782;SDS011;12071;50.850;4.446;2023-02-12T01:01:48;18.17;;;15.20;;
23782;SDS011;12071;50.850;4.446;2023-02-12T01:04:14;21.48;;;15.77;;
23782;SDS011;12071;50.850;4.446;2023-02-12T01:06:41;20.08;;;15.27;;
23782;SDS011;12071;50.850;4.446;2023-02-12T01:09:06;20.05;;;15.18;;
23782;SDS011;12071;50.850;4.446;2023-02-12T01:11:32;18.42;;;14.95;;
23782;SDS011;12071;50.850;4.446;2023-02-12T01:13:58;19.38;;;16.15;;
23782;SDS011;12071;50.850;4.446;2023-02-12T01:16:24;24.20;;;17.02;;
23782;SDS011;12071;50.850;4.446;2023-02-12T01:18:50;21.25;;;16.80;;
23782;SDS011;12071;50.850;4.446;2023-02-12T01:21:19;22.95;;;18.13;;
23782;SDS011;12071;50.850;4.446;2023-02-12T01:23:47;19.55;;;17.02;;
23782;SDS011;12071;50.850;4.446;2023-02-12T01:26:14;22.85;;;16.27;;
23782;SDS011;12071;50.850;4.446;2023-02-12T01:28:42;19.60;;;15.85;;
23782;SDS011;12071;50.850;4.446;2023-02-12T01:31:13;21.92;;;17.42;;
23782;SDS011;12071;50.850;4.446;2023-02-12T01:36:06;24.52;;;18.58;;
23782;SDS011;12071;50.850;4.446;2023-02-12T01:38:32;18.92;;;15.65;;
23782;SDS011;12071;50.850;4.446;2023-02-12T01:41:02;20.23;;;15.30;;
23782;SDS011;12071;50.850;4.446;2023-02-12T01:43:33;20.95;;;16.70;;
23782;SDS011;12071;50.850;4.446;2023-02-12T01:46:00;21.17;;;16.73;;
23782;SDS011;12071;50.850;4.446;2023-02-12T01:48:27;22.33;;;16.55;;
23782;SDS011;12071;50.850;4.446;2023-02-12T01:50:56;21.75;;;17.08;;
23782;SDS011;12071;50.850;4.446;2023-02-12T01:53:25;23.60;;;18.35;;
23782;SDS011;12071;50.850;4.446;2023-02-12T01:55:57;23.52;;;19.45;;
23782;SDS011;12071;50.850;4.446;2023-02-12T01:58:25;24.88;;;19.20;;
23782;SDS011;12071;50.850;4.446;2023-02-12T02:00:53;26.02;;;18.35;;
23782;SDS011;12071;50.850;4.446;2023-02-12T02:03:19;23.90;;;18.70;;
23782;SDS011;12071;50.850;4.446;2023-02-12T02:08:20;31.20;;;19.00;;
23782;SDS011;12071;50.850;4.446;2023-02-12T02:10:46;26.17;;;19.17;;
23782;SDS011;12071;50.850;4.446;2023-02-12T02:13:12;24.33;;;19.58;;
23782;SDS011;12071;50.850;4.446;2023-02-12T02:15:57;24.45;;;19.65;;
23782;SDS011;12071;50.850;4.446;2023-02-12T02:18:29;29.25;;;20.33;;
23782;SDS011;12071;50.850;4.446;2023-02-12T02:25:09;29.98;;;20.58;;
23782;SDS011;12071;50.850;4.446;2023-02-12T02:35:23;33.97;;;25.35;;
23782;SDS011;12071;50.850;4.446;2023-02-12T02:37:55;30.80;;;25.15;;
23782;SDS011;12071;50.850;4.446;2023-02-12T02:40:34;31.17;;;24.77;;
23782;SDS011;12071;50.850;4.446;2023-02-12T02:43:05;33.03;;;25.88;;
23782;SDS011;12071;50.850;4.446;2023-02-12T02:45:39;30.52;;;25.40;;
23782;SDS011;12071;50.850;4.446;2023-02-12T02:48:09;30.55;;;23.90;;
23782;SDS011;12071;50.850;4.446;2023-02-12T02:50:48;30.00;;;23.55;;
23782;SDS011;12071;50.850;4.446;2023-02-12T02:53:21;28.25;;;23.17;;
23782;SDS011;12071;50.850;4.446;2023-02-12T02:55:53;28.75;;;23.77;;
23782;SDS011;12071;50.850;4.446;2023-02-12T02:58:31;30.40;;;24.40;;
23782;SDS011;12071;50.850;4.446;2023-02-12T03:01:04;32.95;;;24.83;;
23782;SDS011;12071;50.850;4.446;2023-02-12T03:06:07;33.63;;;25.08;;
23782;SDS011;12071;50.850;4.446;2023-02-12T03:08:39;30.50;;;23.80;;
23782;SDS011;12071;50.850;4.446;2023-02-12T03:11:41;30.87;;;25.13;;
23782;SDS011;12071;50.850;4.446;2023-02-12T03:16:27;33.40;;;25.48;;
23782;SDS011;12071;50.850;4.446;2023-02-12T03:19:07;32.17;;;25.20;;
23782;SDS011;12071;50.850;4.446;2023-02-12T03:21:40;33.53;;;25.02;;
23782;SDS011;12071;50.850;4.446;2023-02-12T03:24:23;32.92;;;24.67;;
23782;SDS011;12071;50.850;4.446;2023-02-12T03:26:57;31.60;;;24.73;;
23782;SDS011;12071;50.850;4.446;2023-02-12T03:29:28;30.77;;;23.92;;
23782;SDS011;12071;50.850;4.446;2023-02-12T03:34:43;32.25;;;25.50;;
23782;SDS011;12071;50.850;4.446;2023-02-12T03:37:16;34.33;;;25.20;;
23782;SDS011;12071;50.850;4.446;2023-02-12T03:39:54;29.27;;;24.75;;
23782;SDS011;12071;50.850;4.446;2023-02-12T03:42:50;30.95;;;23.92;;
23782;SDS011;12071;50.850;4.446;2023-02-12T03:48:26;34.78;;;25.02;;
23782;SDS011;12071;50.850;4.446;2023-02-12T03:51:38;30.92;;;23.80;;
23782;SDS011;12071;50.850;4.446;2023-02-12T03:54:07;35.47;;;24.75;;
23782;SDS011;12071;50.850;4.446;2023-02-12T03:59:22;31.25;;;25.02;;
23782;SDS011;12071;50.850;4.446;2023-02-12T04:01:50;31.55;;;24.25;;
23782;SDS011;12071;50.850;4.446;2023-02-12T04:04:17;31.85;;;25.27;;
23782;SDS011;12071;50.850;4.446;2023-02-12T04:06:44;29.23;;;23.20;;
23782;SDS011;12071;50.850;4.446;2023-02-12T04:09:11;32.67;;;24.75;;
23782;SDS011;12071;50.850;4.446;2023-02-12T04:16:53;29.30;;;23.17;;
23782;SDS011;12071;50.850;4.446;2023-02-12T04:19:36;30.52;;;23.80;;
23782;SDS011;12071;50.850;4.446;2023-02-12T04:30:28;30.55;;;23.17;;
23782;SDS011;12071;50.850;4.446;2023-02-12T04:32:59;30.30;;;22.90;;
23782;SDS011;12071;50.850;4.446;2023-02-12T04:35:30;29.08;;;23.05;;
23782;SDS011;12071;50.850;4.446;2023-02-12T04:38:08;29.15;;;23.40;;
23782;SDS011;12071;50.850;4.446;2023-02-12T04:40:39;29.70;;;23.00;;
23782;SDS011;12071;50.850;4.446;2023-02-12T04:43:06;30.65;;;22.67;;
23782;SDS011;12071;50.850;4.446;2023-02-12T04:45:33;30.55;;;23.52;;
23782;SDS011;12071;50.850;4.446;2023-02-12T04:47:59;30.88;;;25.05;;
23782;SDS011;12071;50.850;4.446;2023-02-12T04:50:26;31.52;;;24.58;;
23782;SDS011;12071;50.850;4.446;2023-02-12T04:53:00;32.03;;;23.23;;
23782;SDS011;12071;50.850;4.446;2023-02-12T04:55:26;35.92;;;25.50;;
23782;SDS011;12071;50.850;4.446;2023-02-12T04:57:51;32.22;;;24.63;;
23782;SDS011;12071;50.850;4.446;2023-02-12T05:00:17;33.10;;;24.63;;
23782;SDS011;12071;50.850;4.446;2023-02-12T05:02:43;30.88;;;23.80;;
23782;SDS011;12071;50.850;4.446;2023-02-12T05:05:10;36.42;;;23.10;;
23782;SDS011;12071;50.850;4.446;2023-02-12T05:07:35;33.78;;;24.10;;
23782;SDS011;12071;50.850;4.446;2023-02-12T05:10:01;31.95;;;23.30;;
23782;SDS011;12071;50.850;4.446;2023-02-12T05:12:26;30.42;;;23.83;;
23782;SDS011;12071;50.850;4.446;2023-02-12T05:14:52;32.25;;;24.33;;
23782;SDS011;12071;50.850;4.446;2023-02-12T05:17:20;31.10;;;24.08;;
23782;SDS011;12071;50.850;4.446;2023-02-12T05:19:46;32.60;;;24.55;;
23782;SDS011;12071;50.850;4.446;2023-02-12T05:22:12;31.20;;;24.05;;
23782;SDS011;12071;50.850;4.446;2023-02-12T05:24:37;32.70;;;24.90;;
23782;SDS011;12071;50.850;4.446;2023-02-12T05:27:04;32.67;;;23.92;;
23782;SDS011;12071;50.850;4.446;2023-02-12T05:29:30;34.00;;;25.50;;
23782;SDS011;12071;50.850;4.446;2023-02-12T05:31:55;33.45;;;24.48;;
23782;SDS011;12071;50.850;4.446;2023-02-12T05:34:21;34.72;;;25.88;;
23782;SDS011;12071;50.850;4.446;2023-02-12T05:36:47;33.17;;;24.88;;
23782;SDS011;12071;50.850;4.446;2023-02-12T05:39:12;32.63;;;23.83;;
23782;SDS011;12071;50.850;4.446;2023-02-12T05:41:38;36.60;;;25.80;;
23782;SDS011;12071;50.850;4.446;2023-02-12T05:44:03;36.88;;;25.02;;
23782;SDS011;12071;50.850;4.446;2023-02-12T05:46:30;33.05;;;25.38;;
23782;SDS011;12071;50.850;4.446;2023-02-12T05:48:56;32.67;;;25.08;;
23782;SDS011;12071;50.850;4.446;2023-02-12T05:51:23;35.17;;;25.42;;
23782;SDS011;12071;50.850;4.446;2023-02-12T05:53:51;31.42;;;23.70;;
23782;SDS011;12071;50.850;4.446;2023-02-12T05:56:27;38.72;;;26.13;;
23782;SDS011;12071;50.850;4.446;2023-02-12T05:58:57;35.72;;;26.65;;
23782;SDS011;12071;50.850;4.446;2023-02-12T06:01:30;36.95;;;26.63;;
23782;SDS011;12071;50.850;4.446;2023-02-12T06:03:59;35.85;;;26.52;;
23782;SDS011;12071;50.850;4.446;2023-02-12T06:06:26;36.42;;;26.25;;
23782;SDS011;12071;50.850;4.446;2023-02-12T06:08:52;33.83;;;25.20;;
23782;SDS011;12071;50.850;4.446;2023-02-12T06:11:18;36.65;;;25.67;;
23782;SDS011;12071;50.850;4.446;2023-02-12T06:13:45;35.85;;;26.05;;
23782;SDS011;12071;50.850;4.446;2023-02-12T06:18:47;35.08;;;25.35;;
23782;SDS011;12071;50.850;4.446;2023-02-12T06:21:14;36.67;;;25.80;;
23782;SDS011;12071;50.850;4.446;2023-02-12T06:23:41;36.28;;;25.75;;
23782;SDS011;12071;50.850;4.446;2023-02-12T06:26:07;35.20;;;25.42;;
23782;SDS011;12071;50.850;4.446;2023-02-12T06:28:33;33.35;;;24.73;;
23782;SDS011;12071;50.850;4.446;2023-02-12T06:30:59;36.38;;;25.38;;
23782;SDS011;12071;50.850;4.446;2023-02-12T06:33:24;38.85;;;26.75;;
23782;SDS011;12071;50.850;4.446;2023-02-12T06:35:51;35.15;;;26.02;;
23782;SDS011;12071;50.850;4.446;2023-02-12T06:38:17;37.13;;;27.17;;
23782;SDS011;12071;50.850;4.446;2023-02-12T06:40:43;37.42;;;26.85;;
23782;SDS011;12071;50.850;4.446;2023-02-12T06:43:08;38.53;;;27.58;;
23782;SDS011;12071;50.850;4.446;2023-02-12T06:45:34;37.35;;;26.00;;
23782;SDS011;12071;50.850;4.446;2023-02-12T06:48:00;37.22;;;25.15;;
23782;SDS011;12071;50.850;4.446;2023-02-12T06:50:25;38.67;;;27.90;;
23782;SDS011;12071;50.850;4.446;2023-02-12T06:52:51;38.72;;;26.65;;
23782;SDS011;12071;50.850;4.446;2023-02-12T06:55:17;36.45;;;26.42;;
23782;SDS011;12071;50.850;4.446;2023-02-12T06:57:42;36.90;;;25.65;;
23782;SDS011;12071;50.850;4.446;2023-02-12T07:00:08;38.03;;;27.00;;
23782;SDS011;12071;50.850;4.446;2023-02-12T07:02:34;38.50;;;26.77;;
23782;SDS011;12071;50.850;4.446;2023-02-12T07:05:00;38.10;;;26.48;;
23782;SDS011;12071;50.850;4.446;2023-02-12T07:07:25;36.63;;;25.10;;
23782;SDS011;12071;50.850;4.446;2023-02-12T07:09:53;37.90;;;26.45;;
23782;SDS011;12071;50.850;4.446;2023-02-12T07:12:18;37.58;;;25.58;;
23782;SDS011;12071;50.850;4.446;2023-02-12T07:14:44;33.88;;;24.42;;
23782;SDS011;12071;50.850;4.446;2023-02-12T07:17:09;40.22;;;28.20;;
23782;SDS011;12071;50.850;4.446;2023-02-12T07:19:35;37.78;;;27.38;;
23782;SDS011;12071;50.850;4.446;2023-02-12T07:22:01;43.65;;;29.00;;
23782;SDS011;12071;50.850;4.446;2023-02-12T07:24:27;40.88;;;29.23;;
23782;SDS011;12071;50.850;4.446;2023-02-12T07:26:52;38.70;;;28.45;;
23782;SDS011;12071;50.850;4.446;2023-02-12T07:29:18;41.08;;;29.45;;
23782;SDS011;12071;50.850;4.446;2023-02-12T07:31:43;44.95;;;29.45;;
23782;SDS011;12071;50.850;4.446;2023-02-12T07:34:09;39.38;;;28.42;;
23782;SDS011;12071;50.850;4.446;2023-02-12T07:36:35;38.63;;;27.85;;
23782;SDS011;12071;50.850;4.446;2023-02-12T07:39:01;39.40;;;29.05;;
23782;SDS011;12071;50.850;4.446;2023-02-12T07:41:28;39.95;;;28.17;;
23782;SDS011;12071;50.850;4.446;2023-02-12T07:43:57;38.13;;;27.02;;
23782;SDS011;12071;50.850;4.446;2023-02-12T07:46:24;38.03;;;26.55;;
23782;SDS011;12071;50.850;4.446;2023-02-12T07:48:54;38.88;;;27.73;;
23782;SDS011;12071;50.850;4.446;2023-02-12T07:51:20;38.83;;;27.42;;
23782;SDS011;12071;50.850;4.446;2023-02-12T07:53:47;35.08;;;25.38;;
23782;SDS011;12071;50.850;4.446;2023-02-12T07:58:41;38.28;;;27.83;;
23782;SDS011;12071;50.850;4.446;2023-02-12T08:01:13;42.05;;;29.45;;
23782;SDS011;12071;50.850;4.446;2023-02-12T08:03:47;44.47;;;29.33;;
23782;SDS011;12071;50.850;4.446;2023-02-12T08:06:14;42.10;;;29.42;;
23782;SDS011;12071;50.850;4.446;2023-02-12T08:08:40;41.00;;;28.48;;
23782;SDS011;12071;50.850;4.446;2023-02-12T08:11:06;41.33;;;28.65;;
23782;SDS011;12071;50.850;4.446;2023-02-12T08:13:34;39.83;;;27.65;;
23782;SDS011;12071;50.850;4.446;2023-02-12T08:16:04;38.20;;;26.73;;
23782;SDS011;12071;50.850;4.446;2023-02-12T08:18:32;38.38;;;27.38;;
23782;SDS011;12071;50.850;4.446;2023-02-12T08:21:05;38.17;;;27.35;;
23782;SDS011;12071;50.850;4.446;2023-02-12T08:23:33;40.83;;;27.75;;
23782;SDS011;12071;50.850;4.446;2023-02-12T08:28:45;38.95;;;27.48;;
23782;SDS011;12071;50.850;4.446;2023-02-12T08:31:16;41.67;;;28.48;;
23782;SDS011;12071;50.850;4.446;2023-02-12T08:33:44;38.90;;;27.00;;
23782;SDS011;12071;50.850;4.446;2023-02-12T08:36:13;39.50;;;27.55;;
23782;SDS011;12071;50.850;4.446;2023-02-12T08:38:40;42.92;;;28.70;;
23782;SDS011;12071;50.850;4.446;2023-02-12T08:41:08;40.97;;;28.05;;
23782;SDS011;12071;50.850;4.446;2023-02-12T08:43:36;38.83;;;28.00;;
23782;SDS011;12071;50.850;4.446;2023-02-12T08:48:37;40.75;;;28.63;;
23782;SDS011;12071;50.850;4.446;2023-02-12T08:51:07;38.58;;;26.15;;
23782;SDS011;12071;50.850;4.446;2023-02-12T08:53:33;37.95;;;26.27;;
23782;SDS011;12071;50.850;4.446;2023-02-12T08:55:59;39.55;;;26.73;;
23782;SDS011;12071;50.850;4.446;2023-02-12T08:58:25;41.08;;;27.70;;
23782;SDS011;12071;50.850;4.446;2023-02-12T09:00:51;37.60;;;27.60;;
23782;SDS011;12071;50.850;4.446;2023-02-12T09:03:17;38.63;;;27.77;;
23782;SDS011;12071;50.850;4.446;2023-02-12T09:05:42;39.17;;;28.48;;
23782;SDS011;12071;50.850;4.446;2023-02-12T09:08:08;36.45;;;26.80;;
23782;SDS011;12071;50.850;4.446;2023-02-12T09:10:37;40.22;;;27.83;;
23782;SDS011;12071;50.850;4.446;2023-02-12T09:13:07;41.63;;;28.25;;
23782;SDS011;12071;50.850;4.446;2023-02-12T09:15:37;41.28;;;27.35;;
23782;SDS011;12071;50.850;4.446;2023-02-12T09:18:07;40.67;;;26.50;;
23782;SDS011;12071;50.850;4.446;2023-02-12T09:20:34;39.83;;;27.63;;
23782;SDS011;12071;50.850;4.446;2023-02-12T09:23:05;41.70;;;28.45;;
23782;SDS011;12071;50.850;4.446;2023-02-12T09:25:32;43.38;;;29.23;;
23782;SDS011;12071;50.850;4.446;2023-02-12T09:27:59;41.67;;;28.58;;
23782;SDS011;12071;50.850;4.446;2023-02-12T09:30:26;39.13;;;27.75;;
23782;SDS011;12071;50.850;4.446;2023-02-12T09:32:52;40.63;;;28.48;;
23782;SDS011;12071;50.850;4.446;2023-02-12T09:35:18;38.85;;;27.92;;
23782;SDS011;12071;50.850;4.446;2023-02-12T09:37:44;35.08;;;26.30;;
23782;SDS011;12071;50.850;4.446;2023-02-12T09:40:15;40.25;;;27.52;;
23782;SDS011;12071;50.850;4.446;2023-02-12T09:45:49;38.03;;;26.38;;
23782;SDS011;12071;50.850;4.446;2023-02-12T09:50:57;37.92;;;24.73;;
23782;SDS011;12071;50.850;4.446;2023-02-12T09:53:29;36.38;;;25.00;;
23782;SDS011;12071;50.850;4.446;2023-02-12T09:55:55;33.85;;;24.35;;
23782;SDS011;12071;50.850;4.446;2023-02-12T10:00:59;37.03;;;24.15;;
23782;SDS011;12071;50.850;4.446;2023-02-12T10:03:25;38.05;;;25.33;;
23782;SDS011;12071;50.850;4.446;2023-02-12T10:05:58;38.58;;;25.15;;
23782;SDS011;12071;50.850;4.446;2023-02-12T10:21:43;37.30;;;24.33;;
23782;SDS011;12071;50.850;4.446;2023-02-12T10:24:43;36.85;;;23.70;;
23782;SDS011;12071;50.850;4.446;2023-02-12T10:27:24;36.70;;;23.67;;
23782;SDS011;12071;50.850;4.446;2023-02-12T10:33:22;33.25;;;22.50;;
23782;SDS011;12071;50.850;4.446;2023-02-12T10:35:52;37.75;;;24.08;;
23782;SDS011;12071;50.850;4.446;2023-02-12T10:38:24;33.55;;;23.10;;
23782;SDS011;12071;50.850;4.446;2023-02-12T10:40:54;34.92;;;23.02;;
23782;SDS011;12071;50.850;4.446;2023-02-12T10:43:22;34.83;;;21.42;;
23782;SDS011;12071;50.850;4.446;2023-02-12T10:45:48;33.00;;;21.67;;
23782;SDS011;12071;50.850;4.446;2023-02-12T10:48:19;36.25;;;24.13;;
23782;SDS011;12071;50.850;4.446;2023-02-12T10:53:29;33.58;;;21.67;;
23782;SDS011;12071;50.850;4.446;2023-02-12T10:58:55;30.08;;;20.92;;
23782;SDS011;12071;50.850;4.446;2023-02-12T11:03:59;30.55;;;20.58;;
23782;SDS011;12071;50.850;4.446;2023-02-12T11:06:44;32.53;;;21.58;;
23782;SDS011;12071;50.850;4.446;2023-02-12T11:09:26;35.60;;;21.33;;
23782;SDS011;12071;50.850;4.446;2023-02-12T11:11:54;30.40;;;21.35;;
23782;SDS011;12071;50.850;4.446;2023-02-12T11:14:20;29.88;;;20.08;;
23782;SDS011;12071;50.850;4.446;2023-02-12T11:16:51;31.10;;;20.58;;
23782;SDS011;12071;50.850;4.446;2023-02-12T11:19:31;32.97;;;21.13;;
23782;SDS011;12071;50.850;4.446;2023-02-12T11:22:11;28.90;;;20.10;;
23782;SDS011;12071;50.850;4.446;2023-02-12T11:24:43;25.05;;;18.08;;
23782;SDS011;12071;50.850;4.446;2023-02-12T11:30:23;29.40;;;19.60;;
23782;SDS011;12071;50.850;4.446;2023-02-12T11:32:42;25.45;;;16.92;;
23782;SDS011;12071;50.850;4.446;2023-02-12T11:35:15;27.35;;;17.73;;
23782;SDS011;12071;50.850;4.446;2023-02-12T11:37:55;24.75;;;17.75;;
23782;SDS011;12071;50.850;4.446;2023-02-12T11:40:23;24.08;;;16.50;;
23782;SDS011;12071;50.850;4.446;2023-02-12T11:42:53;23.92;;;16.52;;
23782;SDS011;12071;50.850;4.446;2023-02-12T11:45:29;23.23;;;15.82;;
23782;SDS011;12071;50.850;4.446;2023-02-12T11:47:57;30.40;;;19.35;;
23782;SDS011;12071;50.850;4.446;2023-02-12T11:50:25;23.23;;;17.08;;
23782;SDS011;12071;50.850;4.446;2023-02-12T11:52:54;26.40;;;17.73;;
23782;SDS011;12071;50.850;4.446;2023-02-12T11:55:27;25.70;;;16.88;;
23782;SDS011;12071;50.850;4.446;2023-02-12T11:58:02;22.88;;;15.73;;
23782;SDS011;12071;50.850;4.446;2023-02-12T12:00:37;24.80;;;16.67;;
23782;SDS011;12071;50.850;4.446;2023-02-12T12:05:59;24.83;;;16.70;;
23782;SDS011;12071;50.850;4.446;2023-02-12T12:08:39;23.48;;;15.65;;
23782;SDS011;12071;50.850;4.446;2023-02-12T12:11:24;26.17;;;16.45;;
23782;SDS011;12071;50.850;4.446;2023-02-12T12:22:53;23.90;;;15.52;;
23782;SDS011;12071;50.850;4.446;2023-02-12T12:33:45;22.15;;;15.13;;
23782;SDS011;12071;50.850;4.446;2023-02-12T12:36:33;20.38;;;15.00;;
23782;SDS011;12071;50.850;4.446;2023-02-12T12:39:35;23.30;;;15.18;;
23782;SDS011;12071;50.850;4.446;2023-02-12T12:56:29;25.63;;;16.02;;
23782;SDS011;12071;50.850;4.446;2023-02-12T12:59:11;27.17;;;16.20;;
23782;SDS011;12071;50.850;4.446;2023-02-12T13:07:18;22.25;;;15.85;;
23782;SDS011;12071;50.850;4.446;2023-02-12T13:12:49;24.02;;;16.55;;
23782;SDS011;12071;50.850;4.446;2023-02-12T13:20:56;28.33;;;18.70;;
23782;SDS011;12071;50.850;4.446;2023-02-12T13:28:55;29.85;;;18.85;;
23782;SDS011;12071;50.850;4.446;2023-02-12T13:31:29;40.85;;;23.88;;
23782;SDS011;12071;50.850;4.446;2023-02-12T13:34:01;49.17;;;32.78;;
23782;SDS011;12071;50.850;4.446;2023-02-12T13:36:31;27.77;;;18.27;;
23782;SDS011;12071;50.850;4.446;2023-02-12T13:39:14;33.20;;;18.85;;
23782;SDS011;12071;50.850;4.446;2023-02-12T13:41:42;26.40;;;17.65;;
23782;SDS011;12071;50.850;4.446;2023-02-12T13:44:18;28.38;;;18.25;;
23782;SDS011;12071;50.850;4.446;2023-02-12T13:47:16;32.42;;;19.77;;
23782;SDS011;12071;50.850;4.446;2023-02-12T13:49:53;27.42;;;18.77;;
23782;SDS011;12071;50.850;4.446;2023-02-12T13:52:49;31.90;;;19.45;;
23782;SDS011;12071;50.850;4.446;2023-02-12T14:03:26;34.13;;;20.45;;
23782;SDS011;12071;50.850;4.446;2023-02-12T14:08:41;31.13;;;19.85;;
23782;SDS011;12071;50.850;4.446;2023-02-12T14:11:10;32.50;;;19.55;;
23782;SDS011;12071;50.850;4.446;2023-02-12T14:13:52;31.33;;;19.25;;
23782;SDS011;12071;50.850;4.446;2023-02-12T14:21:58;29.88;;;18.98;;
23782;SDS011;12071;50.850;4.446;2023-02-12T14:27:06;28.65;;;18.38;;
23782;SDS011;12071;50.850;4.446;2023-02-12T14:29:58;28.48;;;18.98;;
23782;SDS011;12071;50.850;4.446;2023-02-12T14:37:55;27.63;;;18.42;;
23782;SDS011;12071;50.850;4.446;2023-02-12T14:40:55;29.95;;;19.20;;
23782;SDS011;12071;50.850;4.446;2023-02-12T14:43:22;30.90;;;19.25;;
23782;SDS011;12071;50.850;4.446;2023-02-12T14:45:55;31.95;;;19.23;;
23782;SDS011;12071;50.850;4.446;2023-02-12T14:48:44;32.47;;;19.60;;
23782;SDS011;12071;50.850;4.446;2023-02-12T14:51:13;29.80;;;19.02;;
23782;SDS011;12071;50.850;4.446;2023-02-12T14:53:46;27.73;;;18.52;;
23782;SDS011;12071;50.850;4.446;2023-02-12T14:56:13;33.00;;;18.23;;
23782;SDS011;12071;50.850;4.446;2023-02-12T15:01:10;30.40;;;18.02;;
23782;SDS011;12071;50.850;4.446;2023-02-12T15:06:17;27.25;;;18.58;;
23782;SDS011;12071;50.850;4.446;2023-02-12T15:11:22;35.90;;;19.65;;
23782;SDS011;12071;50.850;4.446;2023-02-12T15:16:34;27.15;;;18.17;;
23782;SDS011;12071;50.850;4.446;2023-02-12T15:24:49;30.88;;;19.40;;
23782;SDS011;12071;50.850;4.446;2023-02-12T15:27:15;31.38;;;19.10;;
23782;SDS011;12071;50.850;4.446;2023-02-12T15:29:44;27.52;;;19.05;;
23782;SDS011;12071;50.850;4.446;2023-02-12T15:32:21;29.83;;;19.83;;
23782;SDS011;12071;50.850;4.446;2023-02-12T15:34:49;32.28;;;19.88;;
23782;SDS011;12071;50.850;4.446;2023-02-12T15:37:24;34.15;;;19.73;;
23782;SDS011;12071;50.850;4.446;2023-02-12T15:39:53;31.80;;;20.35;;
23782;SDS011;12071;50.850;4.446;2023-02-12T15:42:26;29.17;;;18.73;;
23782;SDS011;12071;50.850;4.446;2023-02-12T15:45:01;32.03;;;20.15;;
23782;SDS011;12071;50.850;4.446;2023-02-12T15:50:43;30.73;;;19.95;;
23782;SDS011;12071;50.850;4.446;2023-02-12T15:53:14;38.80;;;20.88;;
23782;SDS011;12071;50.850;4.446;2023-02-12T15:55:41;35.60;;;21.30;;
23782;SDS011;12071;50.850;4.446;2023-02-12T15:58:20;32.95;;;21.13;;
23782;SDS011;12071;50.850;4.446;2023-02-12T16:00:49;32.90;;;21.35;;
23782;SDS011;12071;50.850;4.446;2023-02-12T16:03:20;34.78;;;22.08;;
23782;SDS011;12071;50.850;4.446;2023-02-12T16:08:15;34.63;;;21.92;;
23782;SDS011;12071;50.850;4.446;2023-02-12T16:10:43;34.55;;;21.63;;
23782;SDS011;12071;50.850;4.446;2023-02-12T16:13:17;40.25;;;21.88;;
23782;SDS011;12071;50.850;4.446;2023-02-12T16:16:05;37.35;;;22.52;;
23782;SDS011;12071;50.850;4.446;2023-02-12T16:18:38;39.42;;;23.00;;
23782;SDS011;12071;50.850;4.446;2023-02-12T16:23:35;39.72;;;23.48;;
23782;SDS011;12071;50.850;4.446;2023-02-12T16:26:01;39.83;;;23.33;;
23782;SDS011;12071;50.850;4.446;2023-02-12T16:28:28;37.85;;;24.08;;
23782;SDS011;12071;50.850;4.446;2023-02-12T16:31:11;35.65;;;22.65;;
23782;SDS011;12071;50.850;4.446;2023-02-12T16:38:50;38.80;;;24.15;;
23782;SDS011;12071;50.850;4.446;2023-02-12T16:41:33;36.42;;;22.38;;
23782;SDS011;12071;50.850;4.446;2023-02-12T16:44:20;38.00;;;23.70;;
23782;SDS011;12071;50.850;4.446;2023-02-12T16:46:50;40.17;;;24.55;;
23782;SDS011;12071;50.850;4.446;2023-02-12T16:49:19;40.13;;;24.63;;
23782;SDS011;12071;50.850;4.446;2023-02-12T16:51:48;39.58;;;25.02;;
23782;SDS011;12071;50.850;4.446;2023-02-12T16:54:35;41.30;;;24.73;;
23782;SDS011;12071;50.850;4.446;2023-02-12T16:57:00;40.85;;;23.77;;
23782;SDS011;12071;50.850;4.446;2023-02-12T16:59:26;40.20;;;25.33;;
23782;SDS011;12071;50.850;4.446;2023-02-12T17:01:58;39.00;;;24.45;;
23782;SDS011;12071;50.850;4.446;2023-02-12T17:04:26;43.10;;;26.08;;
23782;SDS011;12071;50.850;4.446;2023-02-12T17:06:52;41.47;;;25.08;;
23782;SDS011;12071;50.850;4.446;2023-02-12T17:09:18;38.03;;;24.23;;
23782;SDS011;12071;50.850;4.446;2023-02-12T17:11:43;39.40;;;24.27;;
23782;SDS011;12071;50.850;4.446;2023-02-12T17:14:14;42.72;;;26.63;;
23782;SDS011;12071;50.850;4.446;2023-02-12T17:16:44;43.30;;;25.80;;
23782;SDS011;12071;50.850;4.446;2023-02-12T17:19:10;41.28;;;26.27;;
23782;SDS011;12071;50.850;4.446;2023-02-12T17:21:36;41.38;;;26.38;;
23782;SDS011;12071;50.850;4.446;2023-02-12T17:26:46;42.25;;;25.60;;
23782;SDS011;12071;50.850;4.446;2023-02-12T17:29:14;43.55;;;25.55;;
23782;SDS011;12071;50.850;4.446;2023-02-12T17:31:40;46.08;;;26.50;;
23782;SDS011;12071;50.850;4.446;2023-02-12T17:34:06;48.45;;;27.73;;
23782;SDS011;12071;50.850;4.446;2023-02-12T17:36:32;47.00;;;27.33;;
23782;SDS011;12071;50.850;4.446;2023-02-12T17:38:58;46.45;;;27.02;;
23782;SDS011;12071;50.850;4.446;2023-02-12T17:41:24;45.35;;;26.80;;
23782;SDS011;12071;50.850;4.446;2023-02-12T17:43:49;45.38;;;26.70;;
23782;SDS011;12071;50.850;4.446;2023-02-12T17:46:19;44.60;;;27.20;;
23782;SDS011;12071;50.850;4.446;2023-02-12T17:48:47;44.92;;;26.52;;
23782;SDS011;12071;50.850;4.446;2023-02-12T17:51:12;43.70;;;26.92;;
23782;SDS011;12071;50.850;4.446;2023-02-12T17:53:38;47.78;;;27.08;;
23782;SDS011;12071;50.850;4.446;2023-02-12T17:56:04;43.20;;;26.77;;
23782;SDS011;12071;50.850;4.446;2023-02-12T17:58:36;46.00;;;27.00;;